Terminal Aerodrome Forecast
Issued by NWS

Home | Current Version | Previous Version | Text Only | Print | Product List | Glossary On
Versions: 1 2 3 4 5 6 7 8 9 10 11 12 13 14 15 16
195
FTUS46 KPDT 132320
TAFALW
TAF
KALW 132320Z 1400/1424 33004KT P6SM SCT008 OVC012
     FM140300 VRB03KT 4SM BR BKN004 OVC008
     FM140800 VRB03KT 1/2SM FG OVC002
     FM141700 VRB03KT 2SM BR OVC004=

USA.gov is the U.S. government's official web portal to all federal, state and local government web resources and services.